createdAt,value
2023-05-20T00:00:25.232Z,4.18
2023-05-20T00:03:50.702Z,5.40
2023-05-20T00:06:58.762Z,4.05
2023-05-20T00:10:03.762Z,4.22
2023-05-20T00:13:09.631Z,4.22
2023-05-20T00:16:14.718Z,3.38
2023-05-20T00:19:23.646Z,3.50
2023-05-20T00:22:33.332Z,5.22
2023-05-20T00:25:38.718Z,5.05
2023-05-20T00:28:43.796Z,3.85
2023-05-20T00:31:49.209Z,4.13
2023-05-20T00:34:59.220Z,4.22
2023-05-20T00:38:07.222Z,3.78
2023-05-20T00:41:12.278Z,4.03
2023-05-20T00:44:18.960Z,4.72
2023-05-20T00:47:26.593Z,5.57
2023-05-20T00:50:31.989Z,3.47
2023-05-20T00:53:43.332Z,6.07
2023-05-20T00:56:49.302Z,5.63
2023-05-20T00:59:54.399Z,5.90
2023-05-20T01:03:00.354Z,4.28
2023-05-20T01:06:05.495Z,5.13
2023-05-20T01:09:13.525Z,5.28
2023-05-20T01:12:21.239Z,3.85
2023-05-20T01:15:27.357Z,4.03
2023-05-20T01:18:33.712Z,5.03
2023-05-20T01:21:39.499Z,6.55
2023-05-20T01:24:48.604Z,6.20
2023-05-20T01:27:54.777Z,5.63
2023-05-20T01:31:00.290Z,5.15
2023-05-20T01:34:06.785Z,4.18
2023-05-20T01:37:12.202Z,5.32
2023-05-20T01:40:20.873Z,4.75
2023-05-20T01:43:26.102Z,5.75
2023-05-20T01:46:35.442Z,6.35
2023-05-20T01:49:40.524Z,8.38
2023-05-20T01:52:45.993Z,6.38
2023-05-20T01:55:55.689Z,4.65
2023-05-20T01:59:01.091Z,7.47
2023-05-20T02:02:06.225Z,4.97
2023-05-20T02:05:12.247Z,5.15
2023-05-20T02:08:17.490Z,5.07
2023-05-20T02:11:25.830Z,5.40
2023-05-20T02:14:30.853Z,4.13
2023-05-20T02:17:36.287Z,7.07
2023-05-20T02:20:41.480Z,6.22
2023-05-20T02:23:46.879Z,4.20
2023-05-20T02:26:55.991Z,4.90
2023-05-20T02:30:01.694Z,6.93
2023-05-20T02:33:08.240Z,4.28
2023-05-20T02:36:13.695Z,5.75
2023-05-20T02:39:18.790Z,6.82
2023-05-20T02:42:26.908Z,7.57
2023-05-20T02:45:32.089Z,7.57
2023-05-20T02:48:37.835Z,5.45
2023-05-20T02:51:43.528Z,6.13
2023-05-20T02:54:50.061Z,6.35
2023-05-20T02:57:57.679Z,5.03
2023-05-20T03:01:03.690Z,7.22
2023-05-20T03:04:08.962Z,7.13
2023-05-20T03:07:15.004Z,6.25
2023-05-20T03:10:20.174Z,6.82
2023-05-20T03:13:28.204Z,8.40
2023-05-20T03:16:35.717Z,4.22
2023-05-20T03:19:41.439Z,5.82
2023-05-20T03:22:46.448Z,6.00
2023-05-20T03:25:51.970Z,6.72
2023-05-20T03:28:59.605Z,6.22
2023-05-20T03:32:05.013Z,7.60
2023-05-20T03:35:10.820Z,5.18
2023-05-20T03:38:16.220Z,5.78
2023-05-20T03:41:21.278Z,6.47
2023-05-20T03:44:29.265Z,5.05
2023-05-20T03:47:34.376Z,5.45
2023-05-20T03:50:39.740Z,6.90
2023-05-20T03:53:44.802Z,3.80
2023-05-20T03:56:50.299Z,4.40
2023-05-20T03:59:58.210Z,7.40
2023-05-20T04:03:03.723Z,4.13
2023-05-20T04:06:10.276Z,4.60
2023-05-20T04:09:18.263Z,4.90
2023-05-20T04:12:23.264Z,4.63
2023-05-20T04:15:31.777Z,6.32
2023-05-20T04:18:39.437Z,4.05
2023-05-20T04:21:46.246Z,5.10
2023-05-20T04:24:51.591Z,4.85
2023-05-20T04:27:57.938Z,5.75
2023-05-20T04:31:05.830Z,6.28
2023-05-20T04:34:11.297Z,4.28
2023-05-20T04:37:16.415Z,5.32
2023-05-20T04:40:25.045Z,6.10
2023-05-20T04:43:34.052Z,3.80
2023-05-20T04:46:42.115Z,5.85
2023-05-20T04:49:47.179Z,4.90
2023-05-20T04:52:52.584Z,6.70
2023-05-20T04:55:57.831Z,4.65
2023-05-20T04:59:05.637Z,5.93
2023-05-20T05:02:13.232Z,4.88
2023-05-20T05:05:19.017Z,3.45
2023-05-20T05:08:24.366Z,4.15
2023-05-20T05:11:29.776Z,5.20
2023-05-20T05:14:34.867Z,4.35
2023-05-20T05:17:44.843Z,4.07
2023-05-20T05:20:49.964Z,3.28
2023-05-20T05:23:58.408Z,4.03
2023-05-20T05:27:03.637Z,4.60
2023-05-20T05:30:12.321Z,3.80
2023-05-20T05:33:20.217Z,5.55
2023-05-20T05:36:27.043Z,6.82
2023-05-20T05:39:32.076Z,3.75
2023-05-20T05:42:38.914Z,3.78
2023-05-20T05:45:44.034Z,8.27
2023-05-20T05:48:52.449Z,8.63
2023-05-20T05:51:57.514Z,10.43
2023-05-20T05:55:05.437Z,12.15
2023-05-20T05:58:10.615Z,8.00
2023-05-20T06:01:16.131Z,3.78
2023-05-20T06:04:28.007Z,4.50
2023-05-20T06:07:35.770Z,6.07
2023-05-20T06:10:40.802Z,5.35
2023-05-20T06:13:46.832Z,9.43
2023-05-20T06:16:52.005Z,5.80
2023-05-20T06:20:00.382Z,6.30
2023-05-20T06:23:05.475Z,4.93
2023-05-20T06:26:18.491Z,4.22
2023-05-20T06:29:23.662Z,2.97
2023-05-20T06:32:29.070Z,3.85
2023-05-20T06:35:37.594Z,8.30
2023-05-20T06:38:42.999Z,4.45
2023-05-20T06:41:47.994Z,4.95
2023-05-20T06:44:54.903Z,4.68
2023-05-20T06:48:02.375Z,13.55
2023-05-20T06:51:10.550Z,15.07
2023-05-20T06:54:15.553Z,7.50
2023-05-20T06:57:21.570Z,9.13
2023-05-20T07:00:26.748Z,4.75
2023-05-20T07:03:32.180Z,3.03
2023-05-20T07:06:40.858Z,6.72
2023-05-20T07:09:47.140Z,9.38
2023-05-20T07:12:52.203Z,5.63
2023-05-20T07:15:57.608Z,4.40
2023-05-20T07:19:02.696Z,2.75
2023-05-20T07:22:20.041Z,2.25
2023-05-20T07:25:25.256Z,3.25
2023-05-20T07:28:33.115Z,3.60
2023-05-20T07:31:38.158Z,2.72
2023-05-20T07:34:44.039Z,3.35
2023-05-20T07:37:52.732Z,3.22
2023-05-20T07:40:58.991Z,3.17
2023-05-20T07:44:04.998Z,2.45
2023-05-20T07:47:18.219Z,4.15
2023-05-20T07:50:23.730Z,3.95
2023-05-20T07:53:31.868Z,2.22
2023-05-20T07:56:44.474Z,5.90
2023-05-20T07:59:52.409Z,2.28
2023-05-20T08:02:57.633Z,3.60
2023-05-20T08:06:03.154Z,3.78
2023-05-20T08:09:11.436Z,2.15
2023-05-20T08:12:16.786Z,2.42
2023-05-20T08:15:24.969Z,4.28
2023-05-20T08:18:30.739Z,3.17
2023-05-20T08:21:35.779Z,1.33
2023-05-20T08:24:47.963Z,1.67
2023-05-20T08:27:54.433Z,5.30
2023-05-20T08:31:01.346Z,2.47
2023-05-20T08:34:06.553Z,6.88
2023-05-20T08:37:12.050Z,3.72
2023-05-20T08:40:20.975Z,2.80
2023-05-20T08:43:26.378Z,2.55
2023-05-20T08:46:33.381Z,4.15
2023-05-20T08:49:39.018Z,4.38
2023-05-20T08:52:46.289Z,4.40
2023-05-20T08:56:01.391Z,3.17
2023-05-20T08:59:07.138Z,4.20
2023-05-20T09:02:14.034Z,3.00
2023-05-20T09:05:21.546Z,5.60
2023-05-20T09:08:28.258Z,3.10
2023-05-20T09:11:36.246Z,3.22
2023-05-20T09:14:43.292Z,2.65
2023-05-20T09:17:48.770Z,5.20
2023-05-20T09:20:55.341Z,4.72
2023-05-20T09:24:04.769Z,4.03
2023-05-20T09:27:13.808Z,4.07
2023-05-20T09:30:21.901Z,3.97
2023-05-20T09:33:30.679Z,3.03
2023-05-20T09:36:38.001Z,5.35
2023-05-20T09:39:48.945Z,2.22
2023-05-20T09:42:58.196Z,5.40
2023-05-20T09:46:06.037Z,2.75
2023-05-20T09:49:13.462Z,6.22
2023-05-20T09:52:21.447Z,3.40
2023-05-20T09:55:27.344Z,4.90
2023-05-20T09:58:37.023Z,3.72
2023-05-20T10:01:44.216Z,4.25
2023-05-20T10:04:52.621Z,2.60
2023-05-20T10:08:22.674Z,5.28
2023-05-20T10:11:31.285Z,3.08
2023-05-20T10:14:43.817Z,4.95
2023-05-20T10:18:00.304Z,5.03
2023-05-20T10:21:18.216Z,3.30
2023-05-20T10:24:32.587Z,3.25
2023-05-20T10:27:56.759Z,3.50
2023-05-20T10:31:18.518Z,8.90
2023-05-20T10:34:24.152Z,4.35
2023-05-20T10:37:33.170Z,4.93
2023-05-20T10:40:38.465Z,3.83
2023-05-20T10:43:45.446Z,4.25
2023-05-20T10:47:24.832Z,3.50
2023-05-20T10:50:37.530Z,2.63
2023-05-20T10:53:50.007Z,3.53
2023-05-20T10:56:59.167Z,3.17
2023-05-20T11:00:11.844Z,5.35
2023-05-20T11:03:22.283Z,6.35
2023-05-20T11:06:33.365Z,6.07
2023-05-20T11:09:41.678Z,5.53
2023-05-20T11:12:46.960Z,5.97
2023-05-20T11:15:56.250Z,3.58
2023-05-20T11:19:04.971Z,3.28
2023-05-20T11:22:11.151Z,4.57
2023-05-20T11:25:20.263Z,3.30
2023-05-20T11:28:35.167Z,4.00
2023-05-20T11:31:41.318Z,3.63
2023-05-20T11:34:54.237Z,3.33
2023-05-20T11:41:08.575Z,5.70
2023-05-20T11:44:18.218Z,4.47
2023-05-20T11:47:27.994Z,6.47
2023-05-20T11:50:41.280Z,4.93
2023-05-20T11:53:46.726Z,5.28
2023-05-20T11:57:11.055Z,3.35
2023-05-20T12:00:19.544Z,4.20
2023-05-20T12:03:29.904Z,5.55
2023-05-20T12:06:40.712Z,5.57
2023-05-20T12:09:46.794Z,7.32
2023-05-20T12:12:53.724Z,7.32
2023-05-20T12:15:58.996Z,7.32
2023-05-20T12:19:04.951Z,4.25
2023-05-20T12:22:13.446Z,3.45
2023-05-20T12:25:26.699Z,5.45
2023-05-20T12:28:33.871Z,4.10
2023-05-20T12:31:40.158Z,3.45
2023-05-20T12:34:47.996Z,3.85
2023-05-20T12:37:56.741Z,6.38
2023-05-20T12:41:02.570Z,3.95
2023-05-20T12:44:09.376Z,4.05
2023-05-20T12:47:15.544Z,3.78
2023-05-20T12:50:21.207Z,8.05
2023-05-20T12:53:29.225Z,7.00
2023-05-20T12:56:37.136Z,7.45
2023-05-20T12:59:42.180Z,5.13
2023-05-20T13:02:48.523Z,4.90
2023-05-20T13:05:53.691Z,6.55
2023-05-20T13:09:03.991Z,4.78
2023-05-20T13:12:13.061Z,5.07
2023-05-20T13:15:19.225Z,3.88
2023-05-20T13:18:30.962Z,5.18
2023-05-20T13:24:45.182Z,4.53
2023-05-20T13:27:54.115Z,5.65
2023-05-20T13:31:01.880Z,4.38
2023-05-20T13:34:08.341Z,4.30
2023-05-20T13:37:14.606Z,7.63
2023-05-20T13:40:23.295Z,6.10
2023-05-20T13:43:29.673Z,4.13
2023-05-20T13:46:38.741Z,5.53
2023-05-20T13:49:51.873Z,5.32
2023-05-20T13:53:02.178Z,4.57
2023-05-20T13:56:20.480Z,3.58
2023-05-20T13:59:27.765Z,6.05
2023-05-20T14:02:36.356Z,5.47
2023-05-20T14:05:41.979Z,5.72
2023-05-20T14:08:49.172Z,5.32
2023-05-20T14:11:59.189Z,6.97
2023-05-20T14:15:04.266Z,5.57
2023-05-20T14:18:10.060Z,7.05
2023-05-20T14:21:17.831Z,5.63
2023-05-20T14:24:24.212Z,4.72
2023-05-20T14:27:32.852Z,4.78
2023-05-20T14:30:46.335Z,4.35
2023-05-20T14:33:51.768Z,3.20
2023-05-20T14:36:57.555Z,4.00
2023-05-20T14:40:04.244Z,6.80
2023-05-20T14:43:12.589Z,6.63
2023-05-20T14:46:31.876Z,6.70
2023-05-20T14:49:39.752Z,4.35
2023-05-20T14:59:34.527Z,5.75
2023-05-20T15:02:45.048Z,4.90
2023-05-20T15:09:12.075Z,4.80
2023-05-20T15:12:20.686Z,6.22
2023-05-20T15:15:29.343Z,4.50
2023-05-20T15:21:58.816Z,4.40
2023-05-20T15:28:35.771Z,5.18
2023-05-20T15:31:47.372Z,6.15
2023-05-20T15:38:21.261Z,3.45
2023-05-20T15:48:48.678Z,6.85
2023-05-20T15:55:32.017Z,5.43
2023-05-20T16:02:11.363Z,10.75
2023-05-20T16:05:18.253Z,4.95
2023-05-20T16:15:11.430Z,6.50
2023-05-20T16:18:23.967Z,6.25
2023-05-20T16:21:32.370Z,5.00
2023-05-20T16:27:59.223Z,5.65
2023-05-20T16:34:32.917Z,7.97
2023-05-20T16:37:41.656Z,6.13
2023-05-20T16:40:53.507Z,9.65
2023-05-20T16:44:07.525Z,6.53
2023-05-20T16:54:18.414Z,8.88
2023-05-20T17:00:52.362Z,4.88
2023-05-20T17:04:17.125Z,6.82
2023-05-20T17:07:29.218Z,6.95
2023-05-20T17:10:40.728Z,8.18
2023-05-20T17:13:49.580Z,6.10
2023-05-20T17:17:09.690Z,6.80
2023-05-20T17:20:15.947Z,7.47
2023-05-20T17:23:21.823Z,5.50
2023-05-20T17:26:43.097Z,5.18
2023-05-20T17:29:48.834Z,6.72
2023-05-20T17:32:59.252Z,10.68
2023-05-20T17:36:04.577Z,6.32
2023-05-20T17:39:11.019Z,9.93
2023-05-20T17:42:23.293Z,9.05
2023-05-20T17:45:38.017Z,9.10
2023-05-20T17:48:48.408Z,6.30
2023-05-20T17:51:54.681Z,5.10
2023-05-20T17:55:06.319Z,11.77
2023-05-20T17:58:17.155Z,6.25
2023-05-20T18:01:24.937Z,6.88
2023-05-20T18:04:33.124Z,8.38
2023-05-20T18:07:45.461Z,5.35
2023-05-20T18:10:55.965Z,5.13
2023-05-20T18:14:06.593Z,7.78
2023-05-20T18:17:23.483Z,10.63
2023-05-20T18:20:28.541Z,6.53
2023-05-20T18:23:34.971Z,6.93
2023-05-20T18:26:40.454Z,14.80
2023-05-20T18:29:49.692Z,11.02
2023-05-20T18:32:56.185Z,7.18
2023-05-20T18:36:03.676Z,5.90
2023-05-20T18:39:08.687Z,7.45
2023-05-20T18:42:16.040Z,4.93
2023-05-20T18:45:26.950Z,8.93
2023-05-20T18:48:32.798Z,6.77
2023-05-20T18:51:38.502Z,10.95
2023-05-20T18:54:44.991Z,8.77
2023-05-20T18:57:50.165Z,8.55
2023-05-20T19:00:58.817Z,8.20
2023-05-20T19:04:05.823Z,6.95
2023-05-20T19:07:16.221Z,8.65
2023-05-20T19:10:21.352Z,9.98
2023-05-20T19:13:26.874Z,5.38
2023-05-20T19:16:37.128Z,7.05
2023-05-20T19:19:42.851Z,7.18
2023-05-20T19:22:48.276Z,6.50
2023-05-20T19:25:53.676Z,7.00
2023-05-20T19:28:58.978Z,9.02
2023-05-20T19:32:08.015Z,9.32
2023-05-20T19:35:13.234Z,8.85
2023-05-20T19:38:19.347Z,10.30
2023-05-20T19:41:24.654Z,7.07
2023-05-20T19:44:30.411Z,13.88
2023-05-20T19:47:40.655Z,10.18
2023-05-20T19:50:46.240Z,8.25
2023-05-20T19:53:51.290Z,6.63
2023-05-20T19:56:57.013Z,7.13
2023-05-20T20:00:03.034Z,12.27
2023-05-20T20:03:13.514Z,11.00
2023-05-20T20:06:18.585Z,6.10
2023-05-20T20:09:24.223Z,12.35
2023-05-20T20:12:29.371Z,11.88
2023-05-20T20:15:36.461Z,10.35
2023-05-20T20:18:44.536Z,11.52
2023-05-20T20:21:52.120Z,7.95
2023-05-20T20:24:57.132Z,6.90
2023-05-20T20:28:02.900Z,9.07
2023-05-20T20:31:08.080Z,8.57
2023-05-20T20:34:17.684Z,9.77
2023-05-20T20:37:23.627Z,7.82
2023-05-20T20:40:29.429Z,9.77
2023-05-20T20:43:39.605Z,10.20
2023-05-20T20:46:45.310Z,7.07
2023-05-20T20:49:53.850Z,10.15
2023-05-20T20:53:03.704Z,9.88
2023-05-20T20:56:08.812Z,8.05
2023-05-20T20:59:16.041Z,7.28
2023-05-20T21:02:21.395Z,9.23
2023-05-20T21:05:29.613Z,6.88
2023-05-20T21:08:35.428Z,10.55
2023-05-20T21:11:47.526Z,9.05
2023-05-20T21:14:54.876Z,10.15
2023-05-20T21:18:00.682Z,7.88
2023-05-20T21:21:12.446Z,9.60
2023-05-20T21:24:19.953Z,10.13
2023-05-20T21:27:29.286Z,9.70
2023-05-20T21:30:34.995Z,8.52
2023-05-20T21:33:40.341Z,6.68
2023-05-20T21:36:48.595Z,7.60
2023-05-20T21:39:54.401Z,6.57
2023-05-20T21:43:01.220Z,10.30
2023-05-20T21:46:22.848Z,7.30
2023-05-20T21:49:28.357Z,8.45
2023-05-20T21:52:36.303Z,10.80
2023-05-20T21:55:42.397Z,7.95
2023-05-20T21:58:50.147Z,7.68
2023-05-20T22:02:01.388Z,7.95
2023-05-20T22:05:07.585Z,9.30
2023-05-20T22:08:17.882Z,12.32
2023-05-20T22:11:24.133Z,7.03
2023-05-20T22:14:29.638Z,7.60
2023-05-20T22:17:39.230Z,10.35
2023-05-20T22:20:45.167Z,7.85
2023-05-20T22:23:55.202Z,8.27
2023-05-20T22:27:04.296Z,8.82
2023-05-20T22:30:10.680Z,10.90
2023-05-20T22:33:18.227Z,11.57
2023-05-20T22:36:25.065Z,9.45
2023-05-20T22:39:35.029Z,12.13
2023-05-20T22:42:42.222Z,9.23
2023-05-20T22:45:48.064Z,8.43
2023-05-20T22:48:55.716Z,7.03
2023-05-20T22:52:01.870Z,8.68
2023-05-20T22:55:10.088Z,9.43
2023-05-20T22:58:15.587Z,8.20
2023-05-20T23:01:22.052Z,8.55
2023-05-20T23:04:29.984Z,8.65
2023-05-20T23:07:37.424Z,9.75
2023-05-20T23:10:48.378Z,9.18
2023-05-20T23:13:54.688Z,9.20
2023-05-20T23:17:00.190Z,10.32
2023-05-20T23:20:06.491Z,9.63
2023-05-20T23:23:12.125Z,9.40
2023-05-20T23:26:21.670Z,8.60
2023-05-20T23:29:27.176Z,9.73
2023-05-20T23:32:32.224Z,9.02
2023-05-20T23:35:39.345Z,9.95
2023-05-20T23:38:44.366Z,9.93
2023-05-20T23:41:54.760Z,10.27
2023-05-20T23:44:59.789Z,8.48
2023-05-20T23:48:05.946Z,11.13
2023-05-20T23:51:13.733Z,10.00
2023-05-20T23:54:20.477Z,9.20
2023-05-20T23:57:28.606Z,10.35
